createdAt,value
2019-04-27T00:01:13.786Z,22.70
2019-04-27T00:03:56.678Z,24.17
2019-04-27T00:06:27.049Z,23.33
2019-04-27T00:09:00.314Z,24.50
2019-04-27T00:11:37.443Z,23.30
2019-04-27T00:14:04.250Z,23.93
2019-04-27T00:16:36.324Z,24.70
2019-04-27T00:19:23.302Z,22.73
2019-04-27T00:21:56.460Z,23.30
2019-04-27T00:24:25.161Z,23.40
2019-04-27T00:26:54.065Z,23.90
2019-04-27T00:29:23.657Z,23.03
2019-04-27T00:31:53.427Z,22.93
2019-04-27T00:34:26.459Z,23.10
2019-04-27T00:36:56.923Z,23.17
2019-04-27T00:39:27.293Z,22.63
2019-04-27T00:41:57.071Z,21.30
2019-04-27T00:44:26.307Z,23.83
2019-04-27T00:46:55.134Z,23.03
2019-04-27T00:49:23.982Z,22.77
2019-04-27T00:51:53.663Z,22.37
2019-04-27T00:54:23.775Z,23.97
2019-04-27T00:56:54.230Z,22.37
2019-04-27T00:59:36.709Z,23.70
2019-04-27T01:02:16.323Z,23.23
2019-04-27T01:04:44.995Z,22.77
2019-04-27T01:07:14.347Z,22.97
2019-04-27T01:09:43.201Z,22.70
2019-04-27T01:12:13.528Z,23.47
2019-04-27T01:14:42.792Z,22.67
2019-04-27T01:17:12.691Z,24.07
2019-04-27T01:19:41.428Z,22.70
2019-04-27T01:22:10.451Z,23.60
2019-04-27T01:24:39.246Z,24.47
2019-04-27T01:27:21.901Z,23.93
2019-04-27T01:29:51.778Z,25.03
2019-04-27T01:32:20.774Z,21.83
2019-04-27T01:34:53.328Z,22.20
2019-04-27T01:37:24.394Z,22.13
2019-04-27T01:39:53.032Z,20.93
2019-04-27T01:42:21.629Z,21.30
2019-04-27T01:45:00.533Z,20.07
2019-04-27T01:47:29.631Z,19.00
2019-04-27T01:50:00.091Z,18.57
2019-04-27T01:52:35.389Z,15.63
2019-04-27T01:55:05.149Z,15.40
2019-04-27T01:57:48.723Z,18.33
2019-04-27T02:00:33.722Z,16.63
2019-04-27T02:03:10.215Z,18.30
2019-04-27T02:06:00.817Z,18.73
2019-04-27T02:08:40.292Z,17.80
2019-04-27T02:11:10.999Z,19.07
2019-04-27T02:13:42.050Z,18.57
2019-04-27T02:16:14.376Z,18.77
2019-04-27T02:18:48.882Z,18.47
2019-04-27T02:21:22.274Z,19.70
2019-04-27T02:23:57.259Z,19.17
2019-04-27T02:26:30.473Z,19.57
2019-04-27T02:29:06.743Z,20.47
2019-04-27T02:31:53.565Z,20.53
2019-04-27T02:34:23.970Z,22.17
2019-04-27T02:36:52.673Z,22.27
2019-04-27T02:39:24.256Z,23.00
2019-04-27T02:41:55.660Z,22.00
2019-04-27T02:44:31.412Z,22.57
2019-04-27T02:47:04.452Z,23.10
2019-04-27T02:49:33.163Z,23.87
2019-04-27T02:52:09.513Z,23.57
2019-04-27T02:54:40.008Z,23.50
2019-04-27T02:57:10.101Z,21.13
2019-04-27T02:59:39.960Z,22.77
2019-04-27T03:02:26.471Z,21.63
2019-04-27T03:04:55.126Z,21.60
2019-04-27T03:07:24.553Z,23.00
2019-04-27T03:09:53.406Z,21.93
2019-04-27T03:12:23.785Z,21.53
2019-04-27T03:14:56.794Z,20.20
2019-04-27T03:17:36.333Z,20.60
2019-04-27T03:20:20.650Z,18.70
2019-04-27T03:22:57.024Z,18.80
2019-04-27T03:25:31.864Z,16.63
2019-04-27T03:28:00.290Z,12.40
2019-04-27T03:30:35.463Z,14.57
2019-04-27T03:33:03.315Z,12.53
2019-04-27T03:35:36.115Z,12.13
2019-04-27T03:38:02.612Z,12.27
2019-04-27T03:40:31.341Z,12.37
2019-04-27T03:43:04.652Z,11.53
2019-04-27T03:45:33.410Z,11.87
2019-04-27T03:48:03.002Z,15.10
2019-04-27T03:50:40.330Z,16.23
2019-04-27T03:53:23.226Z,17.70
2019-04-27T03:56:10.143Z,16.40
2019-04-27T03:58:43.842Z,16.40
2019-04-27T04:01:12.562Z,15.40
2019-04-27T04:03:41.284Z,13.60
2019-04-27T04:06:10.787Z,13.17
2019-04-27T04:08:40.252Z,12.83
2019-04-27T04:11:10.615Z,11.73
2019-04-27T04:13:46.509Z,11.97
2019-04-27T04:16:16.749Z,12.50
2019-04-27T04:18:49.893Z,12.10
2019-04-27T04:21:19.444Z,12.40
2019-04-27T04:23:49.486Z,11.60
2019-04-27T04:26:19.197Z,11.63
2019-04-27T04:28:50.020Z,12.97
2019-04-27T04:31:20.912Z,12.47
2019-04-27T04:33:49.306Z,10.80
2019-04-27T04:36:20.163Z,11.03
2019-04-27T04:38:50.423Z,10.13
2019-04-27T04:41:26.339Z,10.70
2019-04-27T04:43:56.649Z,10.43
2019-04-27T04:46:29.784Z,10.80
2019-04-27T04:49:00.238Z,10.43
2019-04-27T04:51:30.332Z,10.40
2019-04-27T04:53:59.720Z,9.87
2019-04-27T04:56:29.279Z,9.37
2019-04-27T04:59:00.052Z,8.93
2019-04-27T05:01:29.901Z,9.57
2019-04-27T05:03:59.078Z,9.30
2019-04-27T05:06:29.219Z,10.23
2019-04-27T05:08:59.516Z,10.50
2019-04-27T05:11:29.754Z,8.97
2019-04-27T05:14:01.275Z,10.20
2019-04-27T05:16:29.227Z,10.27
2019-04-27T05:18:59.367Z,10.53
2019-04-27T05:21:32.509Z,11.37
2019-04-27T05:24:01.398Z,11.13
2019-04-27T05:26:30.212Z,11.10
2019-04-27T05:28:59.327Z,11.03
2019-04-27T05:31:29.923Z,10.57
2019-04-27T05:33:59.378Z,11.47
2019-04-27T05:36:29.643Z,11.17
2019-04-27T05:38:59.746Z,11.40
2019-04-27T05:41:31.144Z,10.70
2019-04-27T05:44:03.211Z,11.23
2019-04-27T05:46:35.752Z,12.50
2019-04-27T05:49:06.304Z,11.57
2019-04-27T05:51:37.136Z,11.47
2019-04-27T05:54:05.482Z,12.23
2019-04-27T05:56:34.128Z,12.17
2019-04-27T05:59:02.822Z,12.07
2019-04-27T06:01:31.532Z,12.57
2019-04-27T06:04:00.184Z,12.53
2019-04-27T06:06:29.520Z,11.67
2019-04-27T06:09:00.332Z,12.27
2019-04-27T06:11:29.011Z,12.50
2019-04-27T06:13:59.251Z,11.60
2019-04-27T06:16:29.499Z,12.70
2019-04-27T06:18:59.438Z,11.57
2019-04-27T06:21:29.496Z,12.83
2019-04-27T06:23:58.892Z,13.53
2019-04-27T06:26:29.905Z,11.63
2019-04-27T06:28:59.400Z,12.87
2019-04-27T06:31:29.903Z,12.73
2019-04-27T06:33:59.713Z,12.47
2019-04-27T06:36:28.818Z,13.00
2019-04-27T06:38:58.906Z,11.70
2019-04-27T06:41:29.482Z,12.63
2019-04-27T06:43:59.209Z,12.93
2019-04-27T06:46:28.781Z,12.63
2019-04-27T06:48:59.429Z,11.97
2019-04-27T06:51:40.109Z,11.93
2019-04-27T06:54:09.313Z,11.63
2019-04-27T06:56:45.400Z,11.93
2019-04-27T06:59:14.387Z,12.17
2019-04-27T07:01:43.073Z,12.50
2019-04-27T07:04:12.212Z,12.17
2019-04-27T07:06:53.342Z,11.13
2019-04-27T07:09:15.923Z,11.57
2019-04-27T07:12:03.923Z,11.20
2019-04-27T07:14:33.819Z,11.93
2019-04-27T07:17:02.921Z,12.20
2019-04-27T07:19:33.056Z,11.43
2019-04-27T07:22:01.823Z,11.13
2019-04-27T07:24:30.468Z,11.37
2019-04-27T07:27:00.774Z,10.70
2019-04-27T07:29:32.901Z,11.57
2019-04-27T07:32:05.994Z,10.10
2019-04-27T07:34:38.792Z,10.40
2019-04-27T07:37:07.551Z,11.13
2019-04-27T07:39:39.215Z,10.37
2019-04-27T07:42:08.709Z,9.40
2019-04-27T07:44:56.975Z,10.13
2019-04-27T07:47:27.370Z,9.73
2019-04-27T07:49:56.209Z,9.23
2019-04-27T07:52:28.698Z,10.00
2019-04-27T07:54:58.794Z,8.88
2019-04-27T07:57:28.958Z,9.10
2019-04-27T08:00:01.982Z,8.88
2019-04-27T08:02:30.705Z,8.18
2019-04-27T08:04:59.653Z,8.48
2019-04-27T08:07:29.284Z,7.45
2019-04-27T08:10:01.657Z,7.37
2019-04-27T08:12:30.182Z,7.10
2019-04-27T08:15:01.661Z,7.03
2019-04-27T08:17:32.476Z,7.83
2019-04-27T08:20:01.080Z,7.30
2019-04-27T08:22:31.938Z,7.17
2019-04-27T08:25:00.643Z,7.00
2019-04-27T08:27:31.126Z,7.70
2019-04-27T08:30:09.473Z,7.10
2019-04-27T08:32:42.543Z,6.17
2019-04-27T08:35:12.628Z,5.90
2019-04-27T08:37:46.246Z,5.92
2019-04-27T08:40:22.130Z,6.03
2019-04-27T08:42:55.908Z,6.15
2019-04-27T08:45:25.028Z,5.00
2019-04-27T08:47:53.998Z,5.67
2019-04-27T08:50:22.691Z,4.85
2019-04-27T08:52:51.399Z,5.37
2019-04-27T08:55:30.837Z,4.92
2019-04-27T08:58:01.976Z,5.33
2019-04-27T09:00:35.300Z,5.92
2019-04-27T09:03:04.215Z,5.65
2019-04-27T09:05:36.154Z,5.70
2019-04-27T09:08:21.412Z,5.00
2019-04-27T09:10:59.174Z,4.75
2019-04-27T09:13:45.578Z,4.67
2019-04-27T09:16:35.264Z,4.45
2019-04-27T09:19:11.816Z,3.70
2019-04-27T09:22:12.466Z,4.17
2019-04-27T09:24:32.362Z,4.08
2019-04-27T09:27:01.850Z,3.80
2019-04-27T09:29:31.232Z,3.50
2019-04-27T09:32:01.843Z,3.95
2019-04-27T09:34:32.790Z,4.58
2019-04-27T09:37:01.684Z,3.10
2019-04-27T09:39:30.707Z,3.67
2019-04-27T09:42:00.886Z,3.60
2019-04-27T09:44:36.912Z,3.77
2019-04-27T09:47:08.836Z,3.33
2019-04-27T09:49:38.482Z,3.83
2019-04-27T09:52:08.457Z,2.90
2019-04-27T09:54:44.381Z,2.67
2019-04-27T09:57:16.039Z,3.27
2019-04-27T09:59:49.903Z,2.58
2019-04-27T10:02:19.899Z,2.45
2019-04-27T10:04:54.181Z,3.20
2019-04-27T10:07:26.926Z,2.72
2019-04-27T10:09:57.146Z,2.90
2019-04-27T10:12:27.480Z,2.92
2019-04-27T10:15:02.193Z,3.58
2019-04-27T10:17:30.899Z,2.90
2019-04-27T10:20:00.147Z,2.50
2019-04-27T10:22:40.453Z,2.22
2019-04-27T10:25:00.727Z,2.22
2019-04-27T10:27:33.325Z,2.40
2019-04-27T10:30:05.807Z,2.20
2019-04-27T10:32:37.490Z,2.33
2019-04-27T10:35:08.938Z,2.37
2019-04-27T10:37:37.690Z,2.10
2019-04-27T10:40:06.704Z,2.90
2019-04-27T10:42:37.593Z,2.00
2019-04-27T10:45:08.410Z,2.70
2019-04-27T10:47:37.043Z,3.20
2019-04-27T10:50:09.539Z,1.97
2019-04-27T10:52:52.424Z,3.00
2019-04-27T10:55:10.559Z,2.57
2019-04-27T10:57:48.882Z,3.27
2019-04-27T11:00:21.233Z,2.40
2019-04-27T11:02:49.989Z,1.90
2019-04-27T11:05:22.850Z,2.10
2019-04-27T11:07:52.733Z,1.60
2019-04-27T11:10:21.504Z,1.80
2019-04-27T11:12:53.395Z,1.70
2019-04-27T11:15:26.395Z,1.50
2019-04-27T11:17:56.660Z,1.90
2019-04-27T11:20:29.703Z,2.30
2019-04-27T11:23:09.300Z,2.77
2019-04-27T11:25:36.442Z,2.60
2019-04-27T11:28:06.623Z,2.37
2019-04-27T11:30:38.531Z,3.23
2019-04-27T11:33:10.094Z,3.47
2019-04-27T11:35:40.464Z,2.20
2019-04-27T11:38:09.363Z,2.13
2019-04-27T11:40:42.260Z,2.73
2019-04-27T11:43:17.925Z,2.87
2019-04-27T11:45:46.748Z,2.80
2019-04-27T11:48:21.047Z,3.30
2019-04-27T11:50:51.266Z,3.33
2019-04-27T11:53:23.188Z,2.77
2019-04-27T11:55:50.345Z,3.07
2019-04-27T11:58:19.727Z,2.70
2019-04-27T12:00:51.243Z,2.40
2019-04-27T12:03:20.339Z,3.50
2019-04-27T12:05:59.525Z,3.00
2019-04-27T12:08:26.807Z,4.00
2019-04-27T12:13:37.994Z,2.10
2019-04-27T12:16:17.646Z,2.53
2019-04-27T12:18:48.867Z,2.20
2019-04-27T12:21:16.741Z,2.10
2019-04-27T12:23:48.416Z,2.33
2019-04-27T12:26:30.589Z,2.10
2019-04-27T12:29:01.192Z,2.00
2019-04-27T12:31:33.703Z,1.93
2019-04-27T12:34:02.842Z,2.30
2019-04-27T12:36:31.513Z,2.10
2019-04-27T12:39:03.505Z,2.40
2019-04-27T12:41:32.147Z,2.97
2019-04-27T12:44:00.889Z,3.13
2019-04-27T12:46:32.425Z,4.13
2019-04-27T12:49:01.180Z,2.83
2019-04-27T12:51:29.895Z,2.87
2019-04-27T12:54:00.221Z,4.50
2019-04-27T12:56:33.434Z,6.13
2019-04-27T12:59:04.175Z,3.80
2019-04-27T13:01:38.856Z,3.73
2019-04-27T13:04:16.809Z,4.40
2019-04-27T13:06:47.038Z,6.27
2019-04-27T13:09:17.365Z,3.30
2019-04-27T13:11:46.393Z,3.67
2019-04-27T13:14:19.238Z,3.77
2019-04-27T13:17:02.004Z,3.63
2019-04-27T13:19:20.282Z,3.50
2019-04-27T13:21:49.153Z,4.77
2019-04-27T13:24:17.791Z,4.27
2019-04-27T13:26:46.545Z,3.50
2019-04-27T13:29:18.237Z,4.23
2019-04-27T13:31:47.093Z,3.80
2019-04-27T13:34:15.936Z,4.47
2019-04-27T13:36:47.572Z,5.17
2019-04-27T13:39:16.686Z,4.33
2019-04-27T13:41:46.292Z,3.73
2019-04-27T13:44:19.796Z,4.90
2019-04-27T13:47:09.773Z,4.37
2019-04-27T13:49:56.686Z,4.53
2019-04-27T13:52:29.881Z,3.70
2019-04-27T13:54:59.705Z,4.50
2019-04-27T13:57:28.501Z,4.03
2019-04-27T13:59:57.246Z,4.47
2019-04-27T14:02:32.227Z,4.93
2019-04-27T14:04:57.763Z,4.87
2019-04-27T14:07:29.589Z,4.37
2019-04-27T14:10:01.370Z,4.10
2019-04-27T14:12:30.213Z,4.50
2019-04-27T14:15:01.416Z,4.50
2019-04-27T14:17:32.341Z,4.50
2019-04-27T14:20:01.144Z,4.57
2019-04-27T14:22:58.280Z,4.93
2019-04-27T14:25:25.846Z,4.67
2019-04-27T14:28:04.121Z,4.77
2019-04-27T14:30:32.821Z,4.70
2019-04-27T14:33:10.242Z,4.00
2019-04-27T14:35:40.323Z,4.20
2019-04-27T14:38:10.499Z,3.83
2019-04-27T14:40:41.826Z,3.77
2019-04-27T14:43:10.671Z,3.57
2019-04-27T14:45:39.746Z,4.10
2019-04-27T14:48:08.547Z,3.40
2019-04-27T14:50:40.512Z,4.33
2019-04-27T14:53:09.410Z,4.00
2019-04-27T14:55:40.161Z,3.73
2019-04-27T14:58:11.704Z,3.80
2019-04-27T15:00:40.801Z,4.10
2019-04-27T15:03:14.840Z,4.50
2019-04-27T15:05:43.681Z,4.03
2019-04-27T15:08:13.976Z,3.83
2019-04-27T15:10:46.457Z,3.87
2019-04-27T15:13:15.295Z,2.20
2019-04-27T15:15:44.251Z,2.13
2019-04-27T15:18:13.416Z,2.33
2019-04-27T15:20:46.548Z,2.50
2019-04-27T15:23:15.765Z,2.53
2019-04-27T15:25:47.432Z,2.83
2019-04-27T15:28:22.729Z,2.80
2019-04-27T15:30:53.288Z,3.60
2019-04-27T15:33:35.905Z,3.53
2019-04-27T15:36:22.855Z,3.63
2019-04-27T15:38:56.073Z,4.33
2019-04-27T15:41:45.723Z,3.57
2019-04-27T15:44:18.761Z,3.30
2019-04-27T15:46:47.984Z,3.50
2019-04-27T15:49:17.910Z,3.00
2019-04-27T15:51:50.626Z,3.50
2019-04-27T15:54:22.424Z,3.43
2019-04-27T15:56:52.390Z,3.27
2019-04-27T15:59:23.818Z,2.97
2019-04-27T16:01:57.752Z,3.03
2019-04-27T16:04:26.678Z,3.30
2019-04-27T16:07:00.535Z,3.43
2019-04-27T16:09:29.748Z,2.87
2019-04-27T16:12:12.621Z,3.90
2019-04-27T16:14:44.032Z,3.37
2019-04-27T16:17:11.888Z,3.10
2019-04-27T16:19:46.658Z,2.53
2019-04-27T16:22:12.279Z,2.67
2019-04-27T16:24:41.279Z,2.77
2019-04-27T16:27:13.225Z,2.90
2019-04-27T16:29:43.827Z,3.17
2019-04-27T16:32:14.151Z,3.40
2019-04-27T16:34:44.636Z,3.00
2019-04-27T16:37:22.449Z,3.13
2019-04-27T16:39:49.576Z,2.93
2019-04-27T16:42:18.926Z,3.23
2019-04-27T16:44:49.470Z,3.07
2019-04-27T16:47:24.531Z,3.43
2019-04-27T16:49:58.595Z,3.50
2019-04-27T16:52:31.300Z,3.20
2019-04-27T16:55:03.774Z,2.70
2019-04-27T16:57:40.031Z,3.10
2019-04-27T17:00:18.177Z,3.17
2019-04-27T17:02:59.201Z,3.17
2019-04-27T17:05:34.464Z,2.87
2019-04-27T17:08:21.419Z,2.90
2019-04-27T17:10:48.328Z,2.17
2019-04-27T17:13:35.213Z,2.40
2019-04-27T17:16:05.619Z,2.40
2019-04-27T17:18:41.078Z,3.13
2019-04-27T17:21:18.896Z,3.00
2019-04-27T17:23:45.534Z,2.73
2019-04-27T17:26:24.339Z,2.83
2019-04-27T17:29:20.492Z,2.13
2019-04-27T17:31:54.995Z,2.30
2019-04-27T17:34:34.646Z,2.17
2019-04-27T17:37:03.666Z,2.30
2019-04-27T17:39:38.555Z,2.13
2019-04-27T17:42:08.910Z,1.77
2019-04-27T17:44:39.349Z,1.77
2019-04-27T17:47:10.652Z,2.00
2019-04-27T17:49:39.498Z,1.80
2019-04-27T17:52:17.210Z,1.87
2019-04-27T17:54:47.433Z,2.70
2019-04-27T17:57:18.019Z,2.20
2019-04-27T17:59:58.392Z,2.20
2019-04-27T18:02:21.312Z,1.80
2019-04-27T18:04:52.813Z,1.50
2019-04-27T18:07:22.123Z,1.70
2019-04-27T18:09:51.380Z,2.00
2019-04-27T18:12:29.157Z,1.87
2019-04-27T18:14:59.636Z,1.90
2019-04-27T18:17:29.766Z,2.23
2019-04-27T18:20:11.802Z,1.80
2019-04-27T18:22:57.981Z,1.97
2019-04-27T18:25:30.602Z,2.33
2019-04-27T18:28:14.701Z,3.63
2019-04-27T18:30:49.197Z,2.30
2019-04-27T18:33:28.355Z,2.13
2019-04-27T18:36:05.012Z,2.27
2019-04-27T18:38:39.222Z,2.13
2019-04-27T18:41:11.966Z,2.30
2019-04-27T18:43:54.809Z,2.43
2019-04-27T18:46:24.439Z,3.67
2019-04-27T18:48:58.451Z,2.90
2019-04-27T18:51:29.696Z,3.23
2019-04-27T18:54:02.281Z,3.43
2019-04-27T18:56:33.311Z,3.20
2019-04-27T18:59:18.833Z,2.97
2019-04-27T19:01:38.941Z,3.10
2019-04-27T19:04:14.258Z,3.40
2019-04-27T19:06:46.250Z,3.37
2019-04-27T19:09:19.766Z,3.47
2019-04-27T19:11:56.027Z,3.80
2019-04-27T19:14:19.335Z,4.30
2019-04-27T19:16:49.876Z,4.23
2019-04-27T19:19:21.651Z,4.53
2019-04-27T19:21:53.594Z,4.40
2019-04-27T19:24:22.266Z,4.73
2019-04-27T19:26:52.748Z,4.53
2019-04-27T19:29:25.849Z,4.47
2019-04-27T19:32:02.038Z,4.60
2019-04-27T19:34:33.792Z,4.40
2019-04-27T19:37:08.125Z,4.80
2019-04-27T19:39:39.331Z,3.53
2019-04-27T19:42:10.870Z,4.40
2019-04-27T19:44:41.783Z,5.83
2019-04-27T19:47:12.672Z,4.00
2019-04-27T19:49:43.166Z,4.10
2019-04-27T19:52:22.659Z,4.53
2019-04-27T19:54:53.537Z,4.87
2019-04-27T19:57:34.930Z,3.90
2019-04-27T20:00:03.268Z,4.13
2019-04-27T20:02:33.269Z,5.33
2019-04-27T20:05:03.944Z,4.17
2019-04-27T20:07:33.338Z,4.60
2019-04-27T20:10:02.311Z,4.87
2019-04-27T20:12:34.351Z,4.53
2019-04-27T20:15:05.839Z,4.47
2019-04-27T20:17:36.154Z,4.83
2019-04-27T20:20:05.833Z,5.27
2019-04-27T20:22:37.350Z,4.90
2019-04-27T20:25:08.279Z,4.87
2019-04-27T20:27:46.059Z,4.90
2019-04-27T20:30:11.126Z,4.70
2019-04-27T20:32:42.975Z,4.70
2019-04-27T20:35:12.797Z,4.53
2019-04-27T20:37:41.861Z,5.17
2019-04-27T20:40:15.242Z,4.57
2019-04-27T20:42:48.259Z,4.87
2019-04-27T20:45:22.862Z,5.53
2019-04-27T20:48:01.041Z,5.80
2019-04-27T20:50:28.543Z,5.40
2019-04-27T20:53:01.583Z,4.83
2019-04-27T20:55:35.438Z,5.60
2019-04-27T20:58:11.200Z,5.83
2019-04-27T21:00:48.123Z,6.10
2019-04-27T21:03:33.289Z,6.70
2019-04-27T21:06:06.147Z,5.27
2019-04-27T21:08:38.240Z,5.67
2019-04-27T21:11:06.889Z,5.50
2019-04-27T21:13:41.657Z,5.93
2019-04-27T21:16:15.201Z,5.30
2019-04-27T21:18:47.755Z,5.43
2019-04-27T21:21:26.859Z,5.60
2019-04-27T21:23:59.383Z,4.83
2019-04-27T21:26:29.561Z,4.93
2019-04-27T21:28:59.248Z,4.63
2019-04-27T21:31:31.644Z,4.43
2019-04-27T21:34:01.713Z,4.83
2019-04-27T21:36:30.995Z,3.90
2019-04-27T21:39:24.324Z,4.30
2019-04-27T21:41:54.656Z,4.10
2019-04-27T21:44:33.597Z,4.03
2019-04-27T21:47:02.306Z,4.00
2019-04-27T21:49:32.714Z,4.13
2019-04-27T21:52:14.391Z,3.70
2019-04-27T21:54:44.756Z,3.10
2019-04-27T21:57:14.308Z,3.53
2019-04-27T21:59:43.582Z,3.20
2019-04-27T22:02:14.099Z,2.90
2019-04-27T22:04:51.815Z,2.97
2019-04-27T22:07:25.794Z,2.80
2019-04-27T22:09:57.527Z,2.67
2019-04-27T22:12:27.723Z,2.83
2019-04-27T22:14:58.600Z,2.60
2019-04-27T22:17:34.172Z,2.90
2019-04-27T22:20:05.404Z,3.17
2019-04-27T22:22:41.398Z,3.33
2019-04-27T22:25:12.157Z,2.83
2019-04-27T22:27:45.250Z,2.60
2019-04-27T22:30:15.478Z,2.70
2019-04-27T22:32:47.129Z,3.37
2019-04-27T22:35:15.882Z,2.80
2019-04-27T22:37:44.524Z,3.10
2019-04-27T22:40:34.466Z,3.57
2019-04-27T22:43:09.064Z,3.00
2019-04-27T22:45:42.222Z,3.27
2019-04-27T22:48:12.658Z,2.97
2019-04-27T22:50:44.084Z,3.17
2019-04-27T22:53:12.794Z,3.30
2019-04-27T22:55:59.500Z,3.77
2019-04-27T22:58:28.289Z,2.90
2019-04-27T23:01:07.735Z,3.10
2019-04-27T23:03:38.159Z,2.80
2019-04-27T23:06:06.898Z,3.53
2019-04-27T23:08:35.626Z,3.80
2019-04-27T23:11:07.661Z,3.80
2019-04-27T23:13:36.372Z,3.40
2019-04-27T23:16:06.768Z,3.87
2019-04-27T23:18:35.545Z,4.50
2019-04-27T23:21:04.643Z,4.80
2019-04-27T23:23:33.390Z,4.63
2019-04-27T23:26:06.507Z,5.13
2019-04-27T23:28:35.263Z,5.20
2019-04-27T23:31:08.347Z,5.30
2019-04-27T23:33:43.070Z,4.53
2019-04-27T23:36:11.947Z,5.47
2019-04-27T23:38:40.919Z,5.03
2019-04-27T23:41:09.536Z,5.10
2019-04-27T23:43:38.259Z,5.53
2019-04-27T23:46:07.271Z,5.47
2019-04-27T23:48:38.665Z,6.30
2019-04-27T23:51:27.879Z,6.17
2019-04-27T23:53:59.324Z,5.37
2019-04-27T23:56:28.043Z,5.60
2019-04-27T23:58:56.775Z,5.87
